Terminal Aerodrome Forecast
Issued by NWS

Home | Current Version | Previous Version | Text Only | Print | Product List | Glossary Off
Versions: 1 2 3 4 5 6 7 8 9 10 11 12 13 14 15 16 17

629
FTUS43 KABR 292347 CCA
TAFPIR
TAF COR
KPIR 292347Z 3000/3024 11010KT P6SM OVC050
     FM300800 05010KT P6SM OVC040
     FM301400 04015G23KT P6SM VCSH OVC035=

USA.gov is the U.S. government's official web portal to all federal, state and local government web resources and services.